Map

Track Data

SID SEASON NUMBER BASIN SUBBASIN NAME ISO_TIME NATURE LAT LON WMO_WIND WMO_PRES WMO_AGENCY TRACK_TYPE DIST2LAND LANDFALL IFLAG USA_AGENCY USA_ATCF_ID USA_LAT USA_LON USA_RECORD USA_STATUS USA_WIND USA_PRES USA_SSHS USA_R34_NE USA_R34_SE USA_R34_SW USA_R34_NW USA_R50_NE USA_R50_SE USA_R50_SW USA_R50_NW USA_R64_NE USA_R64_SE USA_R64_SW USA_R64_NW USA_POCI USA_ROCI USA_RMW USA_EYE TOKYO_LAT TOKYO_LON TOKYO_GRADE TOKYO_WIND TOKYO_PRES TOKYO_R50_DIR TOKYO_R50_LONG TOKYO_R50_SHORT TOKYO_R30_DIR TOKYO_R30_LONG TOKYO_R30_SHORT TOKYO_LAND CMA_LAT CMA_LON CMA_CAT CMA_WIND CMA_PRES HKO_LAT HKO_LON HKO_CAT HKO_WIND HKO_PRES NEWDELHI_LAT NEWDELHI_LON NEWDELHI_GRADE NEWDELHI_WIND NEWDELHI_PRES NEWDELHI_CI NEWDELHI_DP NEWDELHI_POCI REUNION_LAT REUNION_LON REUNION_TYPE REUNION_WIND REUNION_PRES REUNION_TNUM REUNION_CI REUNION_RMW REUNION_R34_NE REUNION_R34_SE REUNION_R34_SW REUNION_R34_NW REUNION_R50_NE REUNION_R50_SE REUNION_R50_SW REUNION_R50_NW REUNION_R64_NE REUNION_R64_SE REUNION_R64_SW REUNION_R64_NW BOM_LAT BOM_LON BOM_TYPE BOM_WIND BOM_PRES BOM_TNUM BOM_CI BOM_RMW BOM_R34_NE BOM_R34_SE BOM_R34_SW BOM_R34_NW BOM_R50_NE BOM_R50_SE BOM_R50_SW BOM_R50_NW BOM_R64_NE BOM_R64_SE BOM_R64_SW BOM_R64_NW BOM_ROCI BOM_POCI BOM_EYE BOM_POS_METHOD BOM_PRES_METHOD NADI_LAT NADI_LON NADI_CAT NADI_WIND NADI_PRES WELLINGTON_LAT WELLINGTON_LON WELLINGTON_WIND WELLINGTON_PRES DS824_LAT DS824_LON DS824_STAGE DS824_WIND DS824_PRES TD9636_LAT TD9636_LON TD9636_STAGE TD9636_WIND TD9636_PRES TD9635_LAT TD9635_LON TD9635_WIND TD9635_PRES TD9635_ROCI NEUMANN_LAT NEUMANN_LON NEUMANN_CLASS NEUMANN_WIND NEUMANN_PRES MLC_LAT MLC_LON MLC_CLASS MLC_WIND MLC_PRES USA_GUST BOM_GUST BOM_GUST_PER REUNION_GUST REUNION_GUST_PER USA_SEAHGT USA_SEARAD_NE USA_SEARAD_SE USA_SEARAD_SW USA_SEARAD_NW STORM_SPEED STORM_DIR
1966235N16249 1966 60 EP MM EILEEN 1966-08-23 00:00:00 TS 16.2000 -111.200 25 hurdat_epa main 736 736 O________OO___ hurdat_epa EP051966 16.2000 -111.200 TD 25 -1 16.2000 -111.200 TC 25 16.2000 -111.200 1 9 304
1966235N16249 1966 60 EP MM EILEEN 1966-08-23 03:00:00 TS 16.4538 -111.594 main 735 721 P________PP___ EP051966 16.4601 -111.590 TD 25 -1 16.4601 -111.590 TC 25 16.4286 -111.610 1 9 302
1966235N16249 1966 60 EP MM EILEEN 1966-08-23 06:00:00 TS 16.6911 -112.005 25 hurdat_epa main 724 712 O________OP___ hurdat_epa EP051966 16.7000 -112.000 TD 25 -1 16.7000 -112.000 TC 25 16.6555 -112.027 1 9 299
1966235N16249 1966 60 EP MM EILEEN 1966-08-23 09:00:00 TS 16.9019 -112.445 main 716 711 P________PP___ EP051966 16.9074 -112.443 TD 25 -1 16.9074 -112.443 TC 25 16.8796 -112.455 1 10 296
1966235N16249 1966 60 EP MM EILEEN 1966-08-23 12:00:00 TS 17.1000 -112.900 25 hurdat_epa main 715 709 O________OO___ hurdat_epa EP051966 17.1000 -112.900 TD 25 -1 17.1000 -112.900 TC 25 17.1000 -112.900 1 10 295
1966235N16249 1966 60 EP MM EILEEN 1966-08-23 15:00:00 TS 17.3029 -113.347 main 714 714 P________PP___ EP051966 17.2998 -113.343 TD 25 -1 17.2998 -113.343 TC 25 17.3152 -113.365 1 10 295
1966235N16249 1966 60 EP MM EILEEN 1966-08-23 18:00:00 TS 17.5045 -113.809 25 hurdat_epa main 722 718 O________OP___ hurdat_epa EP051966 17.5000 -113.800 TD 25 -1 17.5000 -113.800 TC 25 17.5224 -113.843 1 10 294
1966235N16249 1966 60 EP MM EILEEN 1966-08-23 21:00:00 TS 17.7096 -114.305 main 734 731 P________PP___ EP051966 17.7075 -114.300 TD 25 -1 17.7075 -114.300 TC 25 17.7183 -114.324 1 10 293
1966235N16249 1966 60 EP MM EILEEN 1966-08-24 00:00:00 TS 17.9000 -114.800 25 hurdat_epa main 750 750 O________OO___ hurdat_epa EP051966 17.9000 -114.800 TD 25 -1 17.9000 -114.800 TC 25 17.9000 -114.800 2 10 291
1966235N16249 1966 60 EP MM EILEEN 1966-08-24 03:00:00 TS 18.0595 -115.261 main 769 769 P________PP___ EP051966 18.0573 -115.258 TD 35 0 18.0573 -115.258 TC 35 18.0683 -115.274 2 9 289
1966235N16249 1966 60 EP MM EILEEN 1966-08-24 06:00:00 TS 18.2045 -115.708 45 hurdat_epa main 792 792 O________OP___ hurdat_epa EP051966 18.2000 -115.700 TS 45 0 18.2000 -115.700 TC 45 18.2223 -115.738 2 9 289
1966235N16249 1966 60 EP MM EILEEN 1966-08-24 09:00:00 TS 18.3530 -116.169 main 817 817 P________PP___ EP051966 18.3500 -116.165 TS 45 0 18.3500 -116.165 TC 45 18.3652 -116.183 2 9 289
1966235N16249 1966 60 EP MM EILEEN 1966-08-24 12:00:00 TS 18.5000 -116.600 45 hurdat_epa main 834 831 O________OO___ hurdat_epa EP051966 18.5000 -116.600 TS 45 0 18.5000 -116.600 TC 45 18.5000 -116.600 2 8 292
1966235N16249 1966 60 EP MM EILEEN 1966-08-24 15:00:00 TS 18.6521 -116.961 main 840 840 P________PP___ EP051966 18.6573 -116.965 TS 45 0 18.6573 -116.965 TC 45 18.6311 -116.943 2 7 294
1966235N16249 1966 60 EP MM EILEEN 1966-08-24 18:00:00 TS 18.7912 -117.293 45 hurdat_epa main 850 850 O________OP___ hurdat_epa EP051966 18.8000 -117.300 TS 45 0 18.8000 -117.300 TC 45 18.7560 -117.263 2 7 291
1966235N16249 1966 60 EP MM EILEEN 1966-08-24 21:00:00 TS 18.8954 -117.617 main 861 861 P________PP___ EP051966 18.8997 -117.620 TS 45 0 18.8997 -117.620 TC 45 18.8779 -117.602 2 7 287
1966235N16249 1966 60 EP MM EILEEN 1966-08-25 00:00:00 TS 19.0000 -118.000 45 hurdat_epa main 881 881 O________OO___ hurdat_epa EP051966 19.0000 -118.000 TS 45 0 19.0000 -118.000 TC 45 19.0000 -118.000 2 9 286
1966235N16249 1966 60 EP MM EILEEN 1966-08-25 03:00:00 TS 19.1459 -118.515 main 909 901 P________PP___ EP051966 19.1500 -118.512 TS 45 0 19.1500 -118.512 TC 45 19.1297 -118.526 2 11 286
1966235N16249 1966 60 EP MM EILEEN 1966-08-25 06:00:00 TS 19.2917 -119.102 45 hurdat_epa main 939 939 O________OP___ hurdat_epa EP051966 19.3000 -119.100 TS 45 0 19.3000 -119.100 TC 45 19.2584 -119.112 2 12 283
1966235N16249 1966 60 EP MM EILEEN 1966-08-25 09:00:00 TS 19.4026 -119.715 main 979 979 P________PP___ EP051966 19.4076 -119.715 TS 45 0 19.4076 -119.715 TC 45 19.3828 -119.717 2 11 280
1966235N16249 1966 60 EP MM EILEEN 1966-08-25 12:00:00 TS 19.5000 -120.300 45 hurdat_epa main 1022 1022 O________OO___ hurdat_epa EP051966 19.5000 -120.300 TS 45 0 19.5000 -120.300 TC 45 19.5000 -120.300 2 10 281
1966235N16249 1966 60 EP MM EILEEN 1966-08-25 15:00:00 TS 19.6010 -120.773 main 1058 1058 P________PP___ EP051966 19.5996 -120.765 TS 45 0 19.5996 -120.765 TC 45 19.6064 -120.804 2 9 283
1966235N16249 1966 60 EP MM EILEEN 1966-08-25 18:00:00 TS 19.7013 -121.216 45 hurdat_epa main 1086 1086 O________OP___ hurdat_epa EP051966 19.7000 -121.200 TS 45 0 19.7000 -121.200 TC 45 19.7065 -121.280 2 9 283
1966235N16249 1966 60 EP MM EILEEN 1966-08-25 21:00:00 TS 19.8007 -121.708 main 1111 1111 P________PP___ EP051966 19.8000 -121.700 TS 45 0 19.8000 -121.700 TC 45 19.8034 -121.742 2 9 282
1966235N16249 1966 60 EP MM EILEEN 1966-08-26 00:00:00 TS 19.9000 -122.200 45 hurdat_epa main 1137 1137 O________OO___ hurdat_epa EP051966 19.9000 -122.200 TS 45 0 19.9000 -122.200 TC 45 19.9000 -122.200 2 9 283
1966235N16249 1966 60 EP MM EILEEN 1966-08-26 03:00:00 TS 19.9998 -122.660 main 1162 1162 P________PP___ EP051966 19.9998 -122.650 TS 60 0 19.9998 -122.650 TC 60 20.0000 -122.699 2 9 283
1966235N16249 1966 60 EP MM EILEEN 1966-08-26 06:00:00 TS 20.1000 -123.119 75 hurdat_epa main 1181 1181 O________OP___ hurdat_epa EP051966 20.1000 -123.100 HU 75 1 20.1000 -123.100 TC 75 20.1001 -123.195 2 9 282
1966235N16249 1966 60 EP MM EILEEN 1966-08-26 09:00:00 TS 20.2001 -123.626 main 1209 1209 P________PP___ EP051966 20.2001 -123.615 HU 75 1 20.2001 -123.615 TC 75 20.2001 -123.668 2 9 282
1966235N16249 1966 60 EP MM EILEEN 1966-08-26 12:00:00 TS 20.3000 -124.100 75 hurdat_epa main 1239 1239 O________OO___ hurdat_epa EP051966 20.3000 -124.100 HU 75 1 20.3000 -124.100 TC 75 20.3000 -124.100 4 8 284
1966235N16249 1966 60 EP MM EILEEN 1966-08-26 15:00:00 TS 20.3988 -124.472 main 1261 1261 P________PP___ EP051966 20.3998 -124.480 HU 75 1 20.3998 -124.480 TC 75 20.3949 -124.440 4 7 287
1966235N16249 1966 60 EP MM EILEEN 1966-08-26 18:00:00 TS 20.4982 -124.789 75 hurdat_epa main 1277 1277 O________OP___ hurdat_epa EP051966 20.5000 -124.800 HU 75 1 20.5000 -124.800 TC 75 20.4910 -124.743 4 6 289
1966235N16249 1966 60 EP MM EILEEN 1966-08-26 21:00:00 TS 20.5921 -125.072 main 1294 1294 P________PP___ EP051966 20.5922 -125.078 HU 75 1 20.5922 -125.078 TC 75 20.5917 -125.050 4 6 289
1966235N16249 1966 60 EP MM EILEEN 1966-08-27 00:00:00 TS 20.7000 -125.400 75 hurdat_epa main 1311 1311 O________OO___ hurdat_epa EP051966 20.7000 -125.400 HU 75 1 20.7000 -125.400 TC 75 20.7000 -125.400 4 8 288
1966235N16249 1966 60 EP MM EILEEN 1966-08-27 03:00:00 TS 20.8405 -125.869 main 1345 1339 P________PP___ EP051966 20.8501 -125.870 HU 75 1 20.8501 -125.870 TC 75 20.8021 -125.866 4 10 287
1966235N16249 1966 60 EP MM EILEEN 1966-08-27 06:00:00 TS 20.9826 -126.396 75 hurdat_epa main 1374 1374 O________OP___ hurdat_epa EP051966 21.0000 -126.400 HU 75 1 21.0000 -126.400 TC 75 20.9132 -126.378 4 10 284
1966235N16249 1966 60 EP MM EILEEN 1966-08-27 09:00:00 TS 21.0825 -126.912 main 1410 1410 P________PP___ EP051966 21.0925 -126.915 HU 75 1 21.0925 -126.915 TC 75 21.0427 -126.901 4 10 283
1966235N16249 1966 60 EP MM EILEEN 1966-08-27 12:00:00 TS 21.2000 -127.400 75 hurdat_epa main 1448 1448 O________OO___ hurdat_epa EP051966 21.2000 -127.400 HU 75 1 21.2000 -127.400 TC 75 21.2000 -127.400 2 9 289
1966235N16249 1966 60 EP MM EILEEN 1966-08-27 15:00:00 TS 21.3729 -127.824 main 1471 1471 P________PP___ EP051966 21.3773 -127.815 HU 60 0 21.3773 -127.815 TC 60 21.3554 -127.862 2 9 297
1966235N16249 1966 60 EP MM EILEEN 1966-08-27 18:00:00 TS 21.5890 -128.218 45 hurdat_epa main 1495 1495 O________OP___ hurdat_epa EP051966 21.6000 -128.200 TS 45 0 21.6000 -128.200 TC 45 21.5449 -128.290 2 9 300
1966235N16249 1966 60 EP MM EILEEN 1966-08-27 21:00:00 TS 21.8074 -128.627 main 1521 1521 P________PP___ EP051966 21.8125 -128.615 TS 45 0 21.8125 -128.615 TC 45 21.7869 -128.674 2 9 305
1966235N16249 1966 60 EP MM EILEEN 1966-08-28 00:00:00 TS 22.1000 -129.000 45 hurdat_epa main 1542 1542 O________OO___ hurdat_epa EP051966 22.1000 -129.000 TS 45 0 22.1000 -129.000 TC 45 22.1000 -129.000 2 10 317
1966235N16249 1966 60 EP MM EILEEN 1966-08-28 03:00:00 TS 22.5130 -129.340 main 1550 1549 P________PP___ EP051966 22.5125 -129.345 TS 45 0 22.5125 -129.345 TC 45 22.5149 -129.321 2 11 329
1966235N16249 1966 60 EP MM EILEEN 1966-08-28 06:00:00 TS 22.9994 -129.596 45 hurdat_epa main 1549 1513 O________OP___ hurdat_epa EP051966 23.0000 -129.600 TS 45 0 23.0000 -129.600 TC 45 22.9970 -129.578 2 11 339
1966235N16249 1966 60 EP MM EILEEN 1966-08-28 09:00:00 TS 23.5010 -129.757 main 1513 1468 P________PP___ EP051966 23.4999 -129.760 TS 45 0 23.4999 -129.760 TC 45 23.5056 -129.746 2 10 349
1966235N16249 1966 60 EP MM EILEEN 1966-08-28 12:00:00 TS 24.0000 -129.800 45 hurdat_epa main 1468 1432 O________OO___ hurdat_epa EP051966 24.0000 -129.800 TS 45 0 24.0000 -129.800 TC 45 24.0000 -129.800 2 10 1
1966235N16249 1966 60 EP MM EILEEN 1966-08-28 15:00:00 TS 24.4676 -129.753 main 1423 1375 P________PP___ EP051966 24.4724 -129.760 TS 45 0 24.4724 -129.760 TC 45 24.4485 -129.724 2 9 12
1966235N16249 1966 60 EP MM EILEEN 1966-08-28 18:00:00 TS 24.8911 -129.589 45 hurdat_epa main 1375 1330 O________OP___ hurdat_epa EP051966 24.9000 -129.600 TS 45 0 24.9000 -129.600 TC 45 24.8557 -129.543 2 9 26
1966235N16249 1966 60 EP MM EILEEN 1966-08-28 21:00:00 TS 25.2612 -129.322 main 1321 1276 P________PP___ EP051966 25.2677 -129.330 TS 35 0 25.2677 -129.330 TC 35 25.2350 -129.290 2 9 37
1966235N16249 1966 60 EP MM EILEEN 1966-08-29 00:00:00 TS 25.6000 -129.000 25 hurdat_epa main 1276 O________OO___ hurdat_epa EP051966 25.6000 -129.000 TD 25 -1 25.6000 -129.000 TC 25 25.6000 -129.000 6 9 41

About IBTrACS Database

This database is a web-friendly format of International Best Track Archive for Climate Stewardship (IBTrACS), a global best track data archive curated by NOAA dating back to 1842.

Updated: 2021-10-08